Time;durP1;ratioP1;P1;durP2;ratioP2;P2;SDS_P1;SDS_P2;PMS_P1;PMS_P2;Temp;Humidity;BMP_temperature;BMP_pressure;BME280_temperature;BME280_humidity;BME280_pressure;Samples;Min_cycle;Max_cycle;Signal;HPM_P1;HPM_P2
2022/09/22 00:00:59;;;;;;;0.10;0.10;;;9.30;99.90;;;;;;5067835;28;20462;-86
2022/09/22 00:03:25;;;;;;;0.13;0.13;;;9.30;99.90;;;;;;5073027;28;20231;-87
2022/09/22 00:06:12;;;;;;;0.10;0.10;;;9.30;99.90;;;;;;5059064;28;20980;-87
2022/09/22 00:08:43;;;;;;;0.20;0.20;;;9.30;99.90;;;;;;5073433;28;20448;-88
2022/09/22 00:11:18;;;;;;;0.20;0.20;;;9.20;99.90;;;;;;5074854;28;20483;-85
2022/09/22 00:13:50;;;;;;;0.20;0.20;;;9.10;99.90;;;;;;5070731;28;20437;-85
2022/09/22 00:16:16;;;;;;;0.17;0.17;;;9.10;99.90;;;;;;5075103;28;20471;-87
2022/09/22 00:18:42;;;;;;;0.10;0.10;;;9.10;99.90;;;;;;5069874;28;20529;-86
2022/09/22 00:21:13;;;;;;;0.13;0.13;;;9.10;99.90;;;;;;5069938;28;20531;-84
2022/09/22 00:23:40;;;;;;;0.17;0.17;;;9.00;99.90;;;;;;5065744;28;20191;-85
2022/09/22 00:26:09;;;;;;;0.20;0.20;;;9.00;99.90;;;;;;5071797;28;20480;-85
2022/09/22 00:28:35;;;;;;;0.10;0.10;;;9.00;99.90;;;;;;5074417;28;21022;-87
2022/09/22 00:31:10;;;;;;;0.13;0.13;;;9.10;99.90;;;;;;5073100;28;20482;-85
2022/09/22 00:33:37;;;;;;;0.10;0.10;;;9.10;99.90;;;;;;5057218;28;20440;-87
2022/09/22 00:36:04;;;;;;;0.10;0.10;;;9.10;99.90;;;;;;5062046;28;20475;-87
2022/09/22 00:38:30;;;;;;;0.10;0.10;;;8.80;99.90;;;;;;5074047;28;20436;-87
2022/09/22 00:40:56;;;;;;;0.10;0.10;;;8.80;99.90;;;;;;5065971;28;20554;-87
2022/09/22 00:43:27;;;;;;;0.20;0.20;;;8.90;99.90;;;;;;5063438;28;20999;-86
2022/09/22 00:46:07;;;;;;;0.20;0.20;;;8.90;99.90;;;;;;5076060;28;20547;-85
2022/09/22 00:48:36;;;;;;;0.17;0.17;;;8.90;99.90;;;;;;5071382;28;20424;-86
2022/09/22 00:51:05;;;;;;;0.17;0.17;;;8.80;99.90;;;;;;5070254;28;20533;-87
2022/09/22 00:53:31;;;;;;;0.20;0.20;;;8.80;99.90;;;;;;5067376;28;20518;-87
2022/09/22 00:56:20;;;;;;;0.20;0.20;;;8.80;99.90;;;;;;5070999;28;20851;-87
2022/09/22 00:58:53;;;;;;;0.20;0.20;;;8.90;99.90;;;;;;5070453;28;20189;-87
2022/09/22 01:01:18;;;;;;;0.20;0.20;;;8.90;99.90;;;;;;5070078;28;20454;-86
2022/09/22 01:03:45;;;;;;;0.20;0.20;;;9.00;99.90;;;;;;5070827;28;20444;-85
2022/09/22 01:06:15;;;;;;;0.20;0.20;;;8.90;99.90;;;;;;5071667;28;20212;-87
2022/09/22 01:08:42;;;;;;;0.20;0.20;;;8.80;99.90;;;;;;5071925;28;20543;-87
2022/09/22 01:11:09;;;;;;;0.20;0.20;;;8.70;99.90;;;;;;5068876;28;20999;-87
2022/09/22 01:13:50;;;;;;;0.30;0.30;;;8.70;99.90;;;;;;5064193;28;20452;-88
2022/09/22 01:16:44;;;;;;;0.20;0.20;;;8.60;99.90;;;;;;5062729;28;20444;-86
2022/09/22 01:19:40;;;;;;;0.23;0.23;;;8.60;99.90;;;;;;5072419;28;20431;-87
2022/09/22 01:22:28;;;;;;;0.20;0.20;;;8.60;99.90;;;;;;5069443;28;20494;-84
2022/09/22 01:25:15;;;;;;;0.20;0.20;;;8.60;99.90;;;;;;5071127;28;20920;-86
2022/09/22 01:27:53;;;;;;;0.20;0.20;;;8.50;99.90;;;;;;5086193;28;20505;-87
2022/09/22 01:30:28;;;;;;;0.20;0.20;;;8.50;99.90;;;;;;5068702;28;20857;-88
2022/09/22 01:33:17;;;;;;;0.20;0.20;;;8.40;99.90;;;;;;5069031;28;20439;-87
2022/09/22 01:35:51;;;;;;;0.30;0.30;;;8.50;99.90;;;;;;5070279;28;20472;-86
2022/09/22 01:38:30;;;;;;;0.30;0.30;;;8.40;99.90;;;;;;5069749;28;20807;-87
2022/09/22 01:41:25;;;;;;;0.20;0.20;;;8.30;99.90;;;;;;5056294;28;20448;-87
2022/09/22 01:43:56;;;;;;;0.30;0.30;;;8.40;99.90;;;;;;5070497;28;20436;-86
2022/09/22 01:46:29;;;;;;;0.20;0.20;;;8.60;99.90;;;;;;5071225;28;20459;-87
2022/09/22 01:48:59;;;;;;;0.20;0.20;;;8.60;99.90;;;;;;5068302;28;20937;-87
2022/09/22 01:51:47;;;;;;;0.20;0.20;;;8.60;99.90;;;;;;5066096;28;20494;-87
2022/09/22 01:54:22;;;;;;;0.30;0.30;;;8.40;99.90;;;;;;5061978;28;20440;-87
2022/09/22 01:56:54;;;;;;;0.20;0.20;;;8.40;99.90;;;;;;5066876;28;20452;-87
2022/09/22 01:59:24;;;;;;;0.20;0.20;;;8.40;99.90;;;;;;5066648;28;20427;-88
2022/09/22 02:02:01;;;;;;;0.30;0.30;;;8.40;99.90;;;;;;5083892;28;20539;-87
2022/09/22 02:04:38;;;;;;;0.30;0.30;;;8.30;99.90;;;;;;5054518;28;20443;-87
2022/09/22 02:07:12;;;;;;;0.30;0.30;;;8.40;99.90;;;;;;5061398;28;20420;-88
2022/09/22 02:09:40;;;;;;;0.20;0.20;;;8.30;99.90;;;;;;5070506;28;20490;-87
2022/09/22 02:12:06;;;;;;;0.20;0.20;;;8.20;99.90;;;;;;5070767;28;20510;-87
2022/09/22 02:14:32;;;;;;;0.20;0.20;;;8.10;99.90;;;;;;5071904;28;20408;-87
2022/09/22 02:16:59;;;;;;;0.20;0.20;;;8.20;99.90;;;;;;5068876;28;20621;-87
2022/09/22 02:19:35;;;;;;;0.30;0.30;;;8.20;99.90;;;;;;5069810;28;20223;-87
2022/09/22 02:22:02;;;;;;;0.30;0.30;;;8.20;99.90;;;;;;5067143;28;20470;-88
2022/09/22 02:24:36;;;;;;;0.30;0.30;;;8.00;99.90;;;;;;5060655;28;20436;-88
2022/09/22 02:27:17;;;;;;;0.20;0.20;;;8.00;99.90;;;;;;5055210;28;20476;-86
2022/09/22 02:29:48;;;;;;;0.20;0.20;;;7.90;99.90;;;;;;5070090;28;20467;-87
2022/09/22 02:32:15;;;;;;;0.30;0.30;;;7.90;99.90;;;;;;5066256;28;20787;-87
2022/09/22 02:34:44;;;;;;;0.20;0.20;;;7.80;99.90;;;;;;5072537;28;20472;-88
2022/09/22 02:37:22;;;;;;;0.30;0.30;;;7.90;99.90;;;;;;5070570;28;21045;-87
2022/09/22 02:40:14;;;;;;;0.30;0.30;;;7.80;99.90;;;;;;5063585;28;20445;-87
2022/09/22 02:42:48;;;;;;;0.30;0.30;;;7.80;99.90;;;;;;5057859;28;20440;-87
2022/09/22 02:45:36;;;;;;;0.30;0.30;;;7.80;99.90;;;;;;5067480;28;20463;-88
2022/09/22 02:48:08;;;;;;;0.30;0.30;;;7.70;99.90;;;;;;5051483;28;20931;-86
2022/09/22 02:50:35;;;;;;;0.30;0.30;;;7.70;99.90;;;;;;5050647;28;20476;-87
2022/09/22 02:53:08;;;;;;;0.30;0.30;;;7.70;99.90;;;;;;5055371;28;20802;-87
2022/09/22 02:55:34;;;;;;;0.30;0.30;;;7.70;99.90;;;;;;5060625;28;20460;-87
2022/09/22 02:57:59;;;;;;;0.30;0.30;;;7.70;99.90;;;;;;5069886;28;20436;-87
2022/09/22 03:00:25;;;;;;;0.30;0.30;;;7.70;99.90;;;;;;5067824;28;20190;-88
2022/09/22 03:02:51;;;;;;;0.30;0.30;;;7.80;99.90;;;;;;5061637;28;20192;-87
2022/09/22 03:05:16;;;;;;;0.23;0.23;;;7.80;99.90;;;;;;5053338;28;20198;-88
2022/09/22 03:07:42;;;;;;;0.30;0.30;;;7.70;99.90;;;;;;5070908;28;20213;-88
2022/09/22 03:10:08;;;;;;;0.30;0.30;;;7.70;99.90;;;;;;5065862;28;20308;-86
2022/09/22 03:12:33;;;;;;;0.30;0.30;;;7.80;99.90;;;;;;5059976;28;20206;-87
2022/09/22 03:14:59;;;;;;;0.30;0.30;;;7.80;99.90;;;;;;5068126;28;20455;-86
2022/09/22 03:17:24;;;;;;;0.30;0.30;;;7.80;99.90;;;;;;5068195;28;20218;-88
2022/09/22 03:19:50;;;;;;;0.20;0.20;;;7.70;99.90;;;;;;5069760;28;20189;-88
2022/09/22 03:22:15;;;;;;;0.30;0.30;;;7.70;99.90;;;;;;5065443;28;20195;-88
2022/09/22 03:24:41;;;;;;;0.30;0.30;;;7.60;99.90;;;;;;5049427;28;20189;-89
2022/09/22 03:27:06;;;;;;;0.30;0.30;;;7.50;99.90;;;;;;5063505;28;20186;-88
2022/09/22 03:29:32;;;;;;;0.30;0.30;;;7.60;99.90;;;;;;5061590;28;20204;-87
2022/09/22 03:31:57;;;;;;;0.30;0.30;;;7.60;99.90;;;;;;5068106;28;20228;-87
2022/09/22 03:34:23;;;;;;;0.30;0.30;;;7.60;99.90;;;;;;5057667;28;20237;-88
2022/09/22 03:36:48;;;;;;;0.30;0.30;;;7.60;99.90;;;;;;5061728;28;20190;-88
2022/09/22 03:39:14;;;;;;;0.30;0.30;;;7.60;99.90;;;;;;5069909;28;20178;-88
2022/09/22 03:41:39;;;;;;;0.30;0.30;;;7.50;99.90;;;;;;5064649;28;20266;-88
2022/09/22 03:44:05;;;;;;;0.30;0.30;;;7.50;99.90;;;;;;5055011;28;20587;-88
2022/09/22 03:46:31;;;;;;;0.30;0.30;;;7.50;99.90;;;;;;5070231;28;20193;-88
2022/09/22 03:48:56;;;;;;;0.27;0.27;;;7.40;99.90;;;;;;5069675;28;20261;-88
2022/09/22 03:51:22;;;;;;;0.30;0.30;;;7.30;99.90;;;;;;5060272;28;20275;-88
2022/09/22 03:53:47;;;;;;;0.30;0.30;;;7.40;99.90;;;;;;5070362;28;20178;-88
2022/09/22 03:56:14;;;;;;;0.30;0.30;;;7.40;99.90;;;;;;5064977;28;20247;-88
2022/09/22 03:58:40;;;;;;;0.20;0.20;;;7.40;99.90;;;;;;5070111;28;20178;-88
2022/09/22 04:01:07;;;;;;;0.30;0.30;;;7.30;99.90;;;;;;5063016;28;20460;-88
2022/09/22 04:03:33;;;;;;;0.20;0.20;;;7.30;99.90;;;;;;5053226;28;20667;-88
2022/09/22 04:05:59;;;;;;;0.30;0.30;;;7.30;99.90;;;;;;5068927;28;20448;-88
2022/09/22 04:08:25;;;;;;;0.30;0.30;;;7.30;99.90;;;;;;5070057;28;20462;-89
2022/09/22 04:10:50;;;;;;;0.30;0.30;;;7.30;99.90;;;;;;5066605;28;20648;-88
2022/09/22 04:13:16;;;;;;;0.30;0.30;;;7.30;99.90;;;;;;5067824;28;20439;-87
2022/09/22 04:15:43;;;;;;;0.20;0.20;;;7.30;99.90;;;;;;5065185;28;20205;-88
2022/09/22 04:18:11;;;;;;;0.30;0.30;;;7.30;99.90;;;;;;5058652;28;20443;-87
2022/09/22 04:20:38;;;;;;;0.30;0.30;;;7.20;99.90;;;;;;5068906;28;20947;-89
2022/09/22 04:23:04;;;;;;;0.30;0.30;;;7.20;99.90;;;;;;5058170;28;20907;-89
2022/09/22 04:25:30;;;;;;;0.30;0.30;;;7.10;99.90;;;;;;5067029;28;20522;-88
2022/09/22 04:27:56;;;;;;;0.30;0.30;;;7.00;99.90;;;;;;5063634;28;20190;-87
2022/09/22 04:30:21;;;;;;;0.30;0.30;;;7.10;99.90;;;;;;5071025;28;20605;-88
2022/09/22 04:32:47;;;;;;;0.30;0.30;;;7.10;99.90;;;;;;5072350;28;20681;-88
2022/09/22 04:35:12;;;;;;;0.30;0.30;;;7.00;99.90;;;;;;5072856;28;20226;-88
2022/09/22 04:37:38;;;;;;;0.30;0.30;;;7.00;99.90;;;;;;5072868;28;20597;-88
2022/09/22 04:40:03;;;;;;;0.30;0.30;;;7.00;99.90;;;;;;5072022;28;20277;-90
2022/09/22 04:42:29;;;;;;;0.30;0.30;;;7.00;99.90;;;;;;5055402;28;20604;-87
2022/09/22 04:45:00;;;;;;;0.30;0.30;;;6.90;99.90;;;;;;5061787;28;20536;-89
2022/09/22 04:47:27;;;;;;;0.33;0.33;;;6.90;99.90;;;;;;5071915;28;20193;-88
2022/09/22 04:49:53;;;;;;;0.30;0.30;;;6.80;99.90;;;;;;5071352;28;20463;-89
2022/09/22 04:52:18;;;;;;;0.30;0.30;;;6.80;99.90;;;;;;5067856;28;20567;-88
2022/09/22 04:54:44;;;;;;;0.30;0.30;;;6.80;99.90;;;;;;5071229;28;20554;-87
2022/09/22 04:57:10;;;;;;;0.30;0.30;;;6.80;99.90;;;;;;5072870;28;20239;-87
2022/09/22 04:59:35;;;;;;;0.30;0.30;;;6.80;99.90;;;;;;5072578;28;20193;-87
2022/09/22 05:02:01;;;;;;;0.40;0.40;;;6.80;99.90;;;;;;5066629;28;20185;-87
2022/09/22 05:04:27;;;;;;;0.30;0.30;;;6.90;99.90;;;;;;5082511;28;20206;-87
2022/09/22 05:06:54;;;;;;;0.40;0.40;;;6.80;99.90;;;;;;5067732;28;20440;-87
2022/09/22 05:09:19;;;;;;;0.40;0.40;;;6.90;99.90;;;;;;5067996;28;20436;-89
2022/09/22 05:11:47;;;;;;;0.40;0.40;;;6.80;99.90;;;;;;5069306;28;20448;-86
2022/09/22 05:14:14;;;;;;;0.30;0.30;;;6.80;99.90;;;;;;5071616;28;20189;-86
2022/09/22 05:16:40;;;;;;;0.30;0.30;;;6.90;99.90;;;;;;5064537;28;20441;-86
2022/09/22 05:19:08;;;;;;;0.40;0.40;;;6.90;99.90;;;;;;5067661;28;20898;-87
2022/09/22 05:21:34;;;;;;;0.30;0.30;;;6.90;99.90;;;;;;5078994;28;20477;-87
2022/09/22 05:24:00;;;;;;;0.30;0.30;;;6.90;99.90;;;;;;5051125;28;20510;-88
2022/09/22 05:26:25;;;;;;;0.30;0.30;;;6.80;99.90;;;;;;5064154;28;20190;-89
2022/09/22 05:28:51;;;;;;;0.30;0.30;;;6.80;99.90;;;;;;5070870;28;20194;-86
2022/09/22 05:31:16;;;;;;;0.23;0.23;;;6.90;99.90;;;;;;5067235;28;20246;-90
2022/09/22 05:33:42;;;;;;;0.30;0.30;;;6.80;99.90;;;;;;5064564;28;20181;-90
2022/09/22 05:36:08;;;;;;;0.30;0.30;;;6.80;99.90;;;;;;5069648;28;20256;-88
2022/09/22 05:38:33;;;;;;;0.30;0.30;;;6.80;99.90;;;;;;5070784;28;20190;-88
2022/09/22 05:40:59;;;;;;;0.30;0.30;;;6.80;99.90;;;;;;5068843;28;20181;-88
2022/09/22 05:43:24;;;;;;;0.30;0.30;;;6.80;99.90;;;;;;5068653;28;20186;-89
2022/09/22 05:45:49;;;;;;;0.30;0.30;;;6.90;99.90;;;;;;5067335;28;20197;-88
2022/09/22 05:48:15;;;;;;;0.30;0.30;;;6.90;99.90;;;;;;5068965;28;20911;-88
2022/09/22 05:50:42;;;;;;;0.30;0.30;;;6.90;99.90;;;;;;5074191;28;20224;-88
2022/09/22 05:53:09;;;;;;;0.20;0.20;;;7.00;99.90;;;;;;5064003;28;20192;-88
2022/09/22 05:55:37;;;;;;;0.30;0.30;;;7.00;99.90;;;;;;5073278;28;20436;-88
2022/09/22 05:58:03;;;;;;;0.30;0.30;;;7.00;99.90;;;;;;5070414;28;20436;-88
2022/09/22 06:00:30;;;;;;;0.30;0.30;;;7.00;99.90;;;;;;5072074;28;20433;-87
2022/09/22 06:02:56;;;;;;;0.40;0.40;;;7.10;99.90;;;;;;5071623;28;20448;-88
2022/09/22 06:05:22;;;;;;;0.30;0.30;;;7.10;99.90;;;;;;5072209;28;20946;-88
2022/09/22 06:07:56;;;;;;;0.30;0.30;;;7.10;99.90;;;;;;5073331;28;20428;-88
2022/09/22 06:10:22;;;;;;;0.30;0.30;;;7.20;99.90;;;;;;5070974;28;20213;-88
2022/09/22 06:12:48;;;;;;;0.30;0.30;;;7.30;99.90;;;;;;5058945;28;20870;-88
2022/09/22 06:15:13;;;;;;;0.30;0.30;;;7.40;99.90;;;;;;5053696;28;20506;-88
2022/09/22 06:17:39;;;;;;;0.30;0.30;;;7.50;99.90;;;;;;5061029;28;20191;-89
2022/09/22 06:20:05;;;;;;;0.30;0.30;;;7.60;99.90;;;;;;5066337;28;20196;-89
2022/09/22 06:22:31;;;;;;;0.30;0.30;;;7.70;99.90;;;;;;5071158;28;20200;-90
2022/09/22 06:24:56;;;;;;;0.30;0.30;;;7.80;99.90;;;;;;5066756;28;20943;-87
2022/09/22 06:27:22;;;;;;;0.30;0.30;;;7.90;99.90;;;;;;5067594;28;20182;-88
2022/09/22 06:29:47;;;;;;;0.30;0.30;;;8.00;99.90;;;;;;5067806;28;20658;-88
2022/09/22 06:32:13;;;;;;;0.30;0.30;;;8.20;99.90;;;;;;5070888;28;20269;-89
2022/09/22 06:34:38;;;;;;;0.30;0.30;;;8.30;99.90;;;;;;5070358;28;20229;-87
2022/09/22 06:37:07;;;;;;;0.20;0.20;;;8.40;99.90;;;;;;5070025;28;20220;-86
2022/09/22 06:39:35;;;;;;;0.20;0.20;;;8.50;99.90;;;;;;5062749;28;20174;-86
2022/09/22 06:42:00;;;;;;;0.30;0.30;;;8.70;99.90;;;;;;5068241;28;20811;-86
2022/09/22 06:44:27;;;;;;;0.20;0.20;;;8.80;99.90;;;;;;5067766;28;20456;-86
2022/09/22 06:46:53;;;;;;;0.23;0.23;;;9.00;99.90;;;;;;5068902;28;20189;-86
2022/09/22 06:49:19;;;;;;;0.20;0.20;;;9.10;99.90;;;;;;5066026;28;20428;-85
2022/09/22 06:51:44;;;;;;;0.30;0.30;;;9.30;99.90;;;;;;5066210;28;20221;-85
2022/09/22 06:54:10;;;;;;;0.30;0.30;;;9.40;99.90;;;;;;5071120;28;20186;-91
2022/09/22 06:56:41;;;;;;;0.20;0.20;;;9.60;99.90;;;;;;5070904;28;20182;-86
2022/09/22 06:59:11;;;;;;;0.20;0.20;;;9.70;99.90;;;;;;5066185;28;20537;-86
2022/09/22 07:01:38;;;;;;;0.20;0.20;;;9.90;99.90;;;;;;5064421;28;20485;-85
2022/09/22 07:04:03;;;;;;;0.20;0.20;;;10.00;99.90;;;;;;5082726;28;20531;-84
2022/09/22 07:06:29;;;;;;;0.20;0.20;;;10.10;99.90;;;;;;5067073;28;20531;-83
2022/09/22 07:08:54;;;;;;;0.20;0.20;;;10.40;99.90;;;;;;5067160;28;20243;-85
2022/09/22 07:11:22;;;;;;;0.20;0.20;;;10.60;99.90;;;;;;5067313;28;20256;-84
2022/09/22 07:13:50;;;;;;;0.20;0.20;;;10.70;99.90;;;;;;5063930;28;20190;-84
2022/09/22 07:16:17;;;;;;;0.20;0.20;;;10.90;99.90;;;;;;5064094;28;20452;-84
2022/09/22 07:18:46;;;;;;;0.20;0.20;;;11.00;99.90;;;;;;5067879;28;20444;-84
2022/09/22 07:21:19;;;;;;;0.20;0.20;;;11.20;99.90;;;;;;5064114;28;20451;-84
2022/09/22 07:23:45;;;;;;;0.20;0.20;;;11.40;99.90;;;;;;5059649;28;20518;-85
2022/09/22 07:26:12;;;;;;;0.20;0.20;;;11.50;99.90;;;;;;5068034;28;20526;-86
2022/09/22 07:28:39;;;;;;;0.20;0.20;;;11.60;99.90;;;;;;5066174;28;20444;-87
2022/09/22 07:31:13;;;;;;;0.20;0.20;;;11.80;99.90;;;;;;5062302;28;20567;-87
2022/09/22 07:33:41;;;;;;;0.20;0.20;;;11.90;99.90;;;;;;5063751;28;20428;-85
2022/09/22 07:36:10;;;;;;;0.20;0.20;;;12.00;99.90;;;;;;5069620;28;20458;-86
2022/09/22 07:38:37;;;;;;;0.20;0.20;;;12.00;99.90;;;;;;5061497;28;20436;-85
2022/09/22 07:41:05;;;;;;;0.20;0.20;;;12.00;99.90;;;;;;5065768;28;20456;-86
2022/09/22 07:43:31;;;;;;;0.20;0.20;;;12.30;99.90;;;;;;5068161;28;20439;-87
2022/09/22 07:45:57;;;;;;;0.20;0.20;;;12.40;99.90;;;;;;5060016;28;20445;-86
2022/09/22 07:48:36;;;;;;;0.20;0.20;;;12.50;99.90;;;;;;5065553;28;20450;-85
2022/09/22 07:51:28;;;;;;;0.13;0.13;;;12.70;99.90;;;;;;5066325;28;20271;-86
2022/09/22 07:54:06;;;;;;;0.10;0.10;;;12.80;99.90;;;;;;5064546;28;20448;-86
2022/09/22 07:56:35;;;;;;;0.20;0.20;;;13.00;99.90;;;;;;5066025;28;20522;-86
2022/09/22 07:59:08;;;;;;;0.10;0.10;;;13.20;99.90;;;;;;5066829;28;20454;-90
2022/09/22 08:01:35;;;;;;;0.10;0.10;;;13.30;99.90;;;;;;5066133;28;20802;-84
2022/09/22 08:04:01;;;;;;;0.10;0.10;;;13.40;99.90;;;;;;5073529;28;20435;-84
2022/09/22 08:06:27;;;;;;;0.10;0.10;;;13.60;99.90;;;;;;5069544;28;20444;-84
2022/09/22 08:08:55;;;;;;;0.10;0.10;;;13.60;99.90;;;;;;5070211;28;20260;-84
2022/09/22 08:11:27;;;;;;;0.10;0.10;;;13.70;99.90;;;;;;5072573;28;20511;-83
2022/09/22 08:13:55;;;;;;;0.10;0.10;;;13.70;99.90;;;;;;5060478;28;20444;-84
2022/09/22 08:16:22;;;;;;;0.10;0.10;;;13.80;99.90;;;;;;5069880;28;20444;-83
2022/09/22 08:18:54;;;;;;;0.10;0.10;;;14.10;99.90;;;;;;5070064;28;20440;-83
2022/09/22 08:21:24;;;;;;;0.10;0.10;;;14.40;99.90;;;;;;5057621;28;20448;-86
2022/09/22 08:23:51;;;;;;;0.10;0.10;;;14.40;99.90;;;;;;5079056;28;20479;-84
2022/09/22 08:26:18;;;;;;;0.10;0.10;;;14.60;99.90;;;;;;5082236;28;20454;-84
2022/09/22 08:28:45;;;;;;;0.10;0.10;;;14.70;99.90;;;;;;5068606;28;20491;-87
2022/09/22 08:31:12;;;;;;;0.10;0.10;;;14.90;99.90;;;;;;5069993;28;20566;-87
2022/09/22 08:33:39;;;;;;;0.10;0.10;;;15.00;99.90;;;;;;5061742;28;20447;-87
2022/09/22 08:36:06;;;;;;;0.10;0.10;;;15.30;99.90;;;;;;5071338;28;20513;-87
2022/09/22 08:38:36;;;;;;;0.10;0.10;;;15.60;99.90;;;;;;5070958;28;20447;-86
2022/09/22 08:41:17;;;;;;;0.10;0.10;;;15.60;99.90;;;;;;5072407;28;20875;-87
2022/09/22 08:44:01;;;;;;;0.10;0.10;;;15.80;99.90;;;;;;5053567;28;21180;-87
2022/09/22 08:46:36;;;;;;;0.10;0.10;;;16.00;99.90;;;;;;5061543;28;20534;-87
2022/09/22 08:52:04;;;;;;;0.10;0.10;;;16.00;99.90;;;;;;5069915;28;20463;-88
2022/09/22 08:54:31;;;;;;;0.10;0.10;;;16.00;99.90;;;;;;5088085;28;20436;-87
2022/09/22 08:57:04;;;;;;;0.10;0.10;;;16.20;99.90;;;;;;5068302;28;20440;-87
2022/09/22 09:00:08;;;;;;;0.10;0.10;;;16.20;99.90;;;;;;5067069;28;20785;-87
2022/09/22 09:02:46;;;;;;;0.10;0.10;;;16.60;99.90;;;;;;5068903;28;20546;-87
2022/09/22 09:05:38;;;;;;;0.10;0.10;;;16.90;99.90;;;;;;5066828;28;20436;-87
2022/09/22 09:08:12;;;;;;;0.10;0.10;;;16.70;99.90;;;;;;5071623;28;20435;-87
2022/09/22 09:10:46;;;;;;;0.10;0.10;;;16.90;99.90;;;;;;5071043;28;20486;-87
2022/09/22 09:13:35;;;;;;;0.10;0.10;;;16.80;99.90;;;;;;5071527;28;20581;-87
2022/09/22 09:16:21;;;;;;;0.10;0.10;;;16.90;99.90;;;;;;5064035;28;20979;-88
2022/09/22 09:18:56;;;;;;;0.10;0.10;;;17.40;99.90;;;;;;5069734;28;20528;-86
2022/09/22 09:21:23;;;;;;;0.10;0.10;;;17.30;99.90;;;;;;5069443;28;20446;-88
2022/09/22 09:23:53;;;;;;;0.10;0.10;;;17.20;99.90;;;;;;5070295;28;20447;-86
2022/09/22 09:26:19;;;;;;;0.10;0.10;;;17.60;99.90;;;;;;5069587;28;20450;-87
2022/09/22 09:28:53;;;;;;;0.10;0.10;;;17.50;99.90;;;;;;5070191;28;20444;-87
2022/09/22 09:31:27;;;;;;;0.10;0.10;;;17.60;99.90;;;;;;5069555;28;20536;-88
2022/09/22 09:34:01;;;;;;;0.10;0.10;;;17.60;99.90;;;;;;5069586;28;20472;-87
2022/09/22 09:36:32;;;;;;;0.10;0.10;;;17.50;99.90;;;;;;5068976;28;20448;-88
2022/09/22 09:39:22;;;;;;;0.10;0.10;;;17.90;99.90;;;;;;5063510;28;21045;-88
2022/09/22 09:41:48;;;;;;;0.10;0.10;;;18.00;99.90;;;;;;5063745;28;20459;-88
2022/09/22 09:44:29;;;;;;;0.10;0.10;;;18.10;99.90;;;;;;5059573;28;20444;-87
2022/09/22 09:46:54;;;;;;;0.10;0.10;;;18.20;99.90;;;;;;5065883;28;20801;-87
2022/09/22 09:49:20;;;;;;;0.10;0.10;;;18.20;99.90;;;;;;5067978;28;20456;-88
2022/09/22 09:51:58;;;;;;;0.10;0.10;;;18.30;99.90;;;;;;5069455;28;20232;-87
2022/09/22 09:54:26;;;;;;;0.10;0.10;;;18.70;99.90;;;;;;5065777;28;20966;-89
2022/09/22 09:57:03;;;;;;;0.10;0.10;;;19.10;99.90;;;;;;5068509;28;20524;-87
2022/09/22 10:02:16;;;;;;;0.10;0.10;;;18.90;99.90;;;;;;5070162;28;20442;-89
2022/09/22 10:04:50;;;;;;;0.10;0.10;;;19.50;99.90;;;;;;5068627;28;20455;-89
2022/09/22 10:07:26;;;;;;;0.10;0.10;;;19.30;99.90;;;;;;5062267;28;20454;-89
2022/09/22 10:09:54;;;;;;;0.10;0.10;;;19.50;99.90;;;;;;5070546;28;20554;-89
2022/09/22 10:12:31;;;;;;;0.10;0.10;;;19.20;99.90;;;;;;5067945;28;20470;-90
2022/09/22 10:14:59;;;;;;;0.10;0.10;;;19.70;99.90;;;;;;5067501;28;20432;-92
2022/09/22 10:17:39;;;;;;;0.10;0.10;;;20.00;99.90;;;;;;5071395;28;20452;-90
2022/09/22 10:20:27;;;;;;;0.10;0.00;;;20.80;99.90;;;;;;5057363;28;20449;-90
2022/09/22 10:22:53;;;;;;;0.10;0.00;;;21.20;99.90;;;;;;5056790;28;20511;-90
2022/09/22 10:25:23;;;;;;;0.10;0.00;;;21.50;99.90;;;;;;5066963;28;20534;-93
2022/09/22 10:28:08;;;;;;;0.10;0.00;;;21.70;99.90;;;;;;5068859;28;20952;-88
2022/09/22 10:30:38;;;;;;;0.10;0.00;;;21.10;99.90;;;;;;5057468;28;20534;-93
2022/09/22 10:33:19;;;;;;;0.10;0.00;;;21.40;99.90;;;;;;5058380;28;20944;-88
2022/09/22 10:36:03;;;;;;;0.10;0.00;;;20.80;99.90;;;;;;5059748;28;20588;-89
2022/09/22 10:38:32;;;;;;;0.10;0.10;;;19.80;99.90;;;;;;5069612;28;20519;-91
2022/09/22 10:41:20;;;;;;;0.10;0.10;;;18.50;99.90;;;;;;5064355;28;20444;-89
2022/09/22 10:43:50;;;;;;;0.10;0.10;;;17.90;99.90;;;;;;5067768;28;20851;-90
2022/09/22 10:46:48;;;;;;;0.10;0.10;;;17.30;99.90;;;;;;5069531;28;20451;-90
2022/09/22 10:49:39;;;;;;;0.10;0.10;;;17.10;99.90;;;;;;5068317;28;20466;-88
2022/09/22 10:52:08;;;;;;;0.10;0.10;;;17.30;99.90;;;;;;5069806;28;20831;-89
2022/09/22 10:54:46;;;;;;;0.10;0.10;;;17.60;99.90;;;;;;5068590;28;20432;-90
2022/09/22 10:57:43;;;;;;;0.10;0.10;;;17.50;99.90;;;;;;5068000;28;20450;-89
2022/09/22 11:00:10;;;;;;;0.10;0.10;;;18.50;99.90;;;;;;5067683;28;20440;-90
2022/09/22 11:02:54;;;;;;;0.10;0.10;;;19.60;99.90;;;;;;5069316;28;20793;-91
2022/09/22 11:14:31;;;;;;;0.10;0.00;;;20.50;99.90;;;;;;5064275;28;20455;-92
2022/09/22 11:17:30;;;;;;;0.10;0.00;;;20.80;99.90;;;;;;5064882;28;20991;-93
2022/09/22 11:19:57;;;;;;;0.10;0.00;;;19.10;99.90;;;;;;5067329;28;20878;-90
2022/09/22 11:22:56;;;;;;;0.10;0.00;;;18.70;99.90;;;;;;5068819;28;20800;-91
2022/09/22 11:25:40;;;;;;;0.10;0.10;;;18.50;99.90;;;;;;5066238;28;20443;-89
2022/09/22 11:28:22;;;;;;;0.10;0.10;;;18.10;99.90;;;;;;5069326;28;20443;-91
2022/09/22 11:30:52;;;;;;;0.10;0.10;;;19.20;99.90;;;;;;5064779;28;20484;-89
2022/09/22 11:33:36;;;;;;;0.10;0.00;;;20.80;99.90;;;;;;5068236;28;20928;-90
2022/09/22 11:36:34;;;;;;;0.10;0.00;;;21.00;99.90;;;;;;5067394;28;20469;-90
2022/09/22 11:39:18;;;;;;;0.10;0.00;;;21.20;99.90;;;;;;5056816;28;20532;-87
2022/09/22 11:41:59;;;;;;;0.10;0.00;;;21.60;99.90;;;;;;5067227;28;20445;-88
2022/09/22 11:44:45;;;;;;;0.10;0.00;;;21.90;99.90;;;;;;5065136;28;20490;-90
2022/09/22 11:47:32;;;;;;;0.10;0.00;;;21.70;99.90;;;;;;5067257;28;20448;-90
2022/09/22 11:50:16;;;;;;;0.10;0.00;;;20.90;99.90;;;;;;5067322;28;20885;-90
2022/09/22 11:52:53;;;;;;;0.10;0.00;;;21.70;99.90;;;;;;5069774;28;20646;-92
2022/09/22 11:55:40;;;;;;;0.10;0.00;;;21.30;99.90;;;;;;5066942;28;20443;-90
2022/09/22 11:58:14;;;;;;;0.10;0.00;;;22.40;99.90;;;;;;5066305;28;20443;-90
2022/09/22 12:00:50;;;;;;;0.10;0.10;;;22.90;99.90;;;;;;5065853;28;20444;-89
2022/09/22 12:03:22;;;;;;;0.10;0.00;;;22.70;99.90;;;;;;5063747;28;20431;-89
2022/09/22 12:05:55;;;;;;;0.10;0.00;;;23.60;99.90;;;;;;5060025;28;20513;-88
2022/09/22 12:08:36;;;;;;;0.10;0.00;;;24.70;99.90;;;;;;5066961;28;20432;-88
2022/09/22 12:11:05;;;;;;;0.10;0.00;;;25.20;99.90;;;;;;5069635;28;20515;-88
2022/09/22 12:13:33;;;;;;;0.10;0.00;;;24.90;99.90;;;;;;5060075;28;20451;-88
2022/09/22 12:16:40;;;;;;;0.10;0.00;;;24.40;99.90;;;;;;5065523;28;20471;-88
2022/09/22 12:19:37;;;;;;;0.10;0.00;;;24.10;99.90;;;;;;5068671;28;20594;-87
2022/09/22 12:22:31;;;;;;;0.10;0.00;;;22.60;99.90;;;;;;5065600;28;20451;-88
2022/09/22 12:24:57;;;;;;;0.10;0.00;;;21.80;99.90;;;;;;5061928;28;20618;-88
2022/09/22 12:27:25;;;;;;;0.10;0.00;;;20.90;99.90;;;;;;5065069;28;21216;-89
2022/09/22 12:30:00;;;;;;;0.10;0.00;;;20.40;99.90;;;;;;5066637;28;20545;-89
2022/09/22 12:32:37;;;;;;;0.10;0.00;;;21.80;99.90;;;;;;5063041;28;20490;-88
2022/09/22 12:35:04;;;;;;;0.10;0.00;;;23.10;99.90;;;;;;5061955;28;20574;-89
2022/09/22 12:37:32;;;;;;;0.10;0.00;;;24.20;99.90;;;;;;5064322;28;20474;-88
2022/09/22 12:40:13;;;;;;;0.10;0.00;;;25.00;99.90;;;;;;5062988;28;20527;-88
2022/09/22 12:42:42;;;;;;;0.10;0.00;;;23.90;98.90;;;;;;5062443;28;20454;-88
2022/09/22 12:45:19;;;;;;;0.10;0.00;;;23.00;99.90;;;;;;5066492;28;20475;-89
2022/09/22 12:47:52;;;;;;;0.10;0.00;;;24.60;99.90;;;;;;5065122;28;20500;-89
2022/09/22 12:50:23;;;;;;;0.10;0.00;;;24.80;97.20;;;;;;5068091;28;20504;-89
2022/09/22 12:52:49;;;;;;;0.10;0.00;;;25.10;97.40;;;;;;5060785;28;20504;-88
2022/09/22 12:55:27;;;;;;;0.10;0.00;;;25.90;96.30;;;;;;5069929;28;20934;-89
2022/09/22 12:57:54;;;;;;;0.10;0.00;;;26.10;95.20;;;;;;5064788;28;20182;-88
2022/09/22 13:00:38;;;;;;;0.10;0.00;;;26.50;94.80;;;;;;5067074;28;20436;-88
2022/09/22 13:03:29;;;;;;;0.10;0.00;;;26.30;94.80;;;;;;5064399;28;20596;-89
2022/09/22 13:06:22;;;;;;;0.10;0.00;;;26.00;94.70;;;;;;5066448;28;20492;-89
2022/09/22 13:08:47;;;;;;;0.10;0.00;;;26.70;93.30;;;;;;5071634;28;20519;-88
2022/09/22 13:11:12;;;;;;;0.10;0.00;;;26.70;93.10;;;;;;5065763;28;21182;-89
2022/09/22 13:13:49;;;;;;;0.10;0.00;;;26.80;92.50;;;;;;5067477;28;20190;-89
2022/09/22 13:16:15;;;;;;;0.10;0.00;;;26.30;94.40;;;;;;5064367;28;20209;-89
2022/09/22 13:18:44;;;;;;;0.10;0.00;;;24.90;95.50;;;;;;5071077;28;20480;-89
2022/09/22 13:21:12;;;;;;;0.10;0.10;;;23.40;98.00;;;;;;5071442;28;20178;-89
2022/09/22 13:23:51;;;;;;;0.10;0.00;;;24.30;96.00;;;;;;5069468;28;20432;-89
2022/09/22 13:26:35;;;;;;;0.10;0.00;;;24.80;94.20;;;;;;5070586;28;20423;-89
2022/09/22 13:29:14;;;;;;;0.10;0.00;;;25.30;95.20;;;;;;5069051;28;20447;-88
2022/09/22 13:31:42;;;;;;;0.10;0.00;;;25.80;93.00;;;;;;5071812;28;20478;-88